createdAt,value
2023-08-08T00:00:16.714Z,100417.75
2023-08-08T00:01:19.750Z,100422.34
2023-08-08T00:02:22.870Z,100423.53
2023-08-08T00:03:25.962Z,100428.41
2023-08-08T00:04:29.002Z,100427.22
2023-08-08T00:05:31.970Z,100422.72
2023-08-08T00:06:34.970Z,100418.88
2023-08-08T00:07:37.959Z,100428.84
2023-08-08T00:08:40.930Z,100432.97
2023-08-08T00:09:43.936Z,100428.13
2023-08-08T00:10:46.951Z,100435.72
2023-08-08T00:11:50.055Z,100437.28
2023-08-08T00:12:53.034Z,100441.13
2023-08-08T00:13:56.010Z,100442.13
2023-08-08T00:14:58.986Z,100456.81
2023-08-08T00:16:01.993Z,100444.50
2023-08-08T00:17:05.238Z,100445.97
2023-08-08T00:18:08.247Z,100447.63
2023-08-08T00:19:11.382Z,100443.16
2023-08-08T00:20:15.652Z,100445.53
2023-08-08T00:21:18.640Z,100449.66
2023-08-08T00:22:21.600Z,100450.84
2023-08-08T00:23:24.584Z,100453.56
2023-08-08T00:24:27.561Z,100448.00
2023-08-08T00:25:30.539Z,100450.19
2023-08-08T00:26:33.572Z,100451.22
2023-08-08T00:27:36.606Z,100448.91
2023-08-08T00:28:39.626Z,100439.25
2023-08-08T00:29:42.589Z,100450.38
2023-08-08T00:30:46.095Z,100450.91
2023-08-08T00:31:49.194Z,100452.84
2023-08-08T00:32:52.273Z,100454.69
2023-08-08T00:33:55.346Z,100461.84
2023-08-08T00:34:58.325Z,100456.88
2023-08-08T00:36:01.319Z,100459.25
2023-08-08T00:37:04.511Z,100455.78
2023-08-08T00:38:07.562Z,100451.56
2023-08-08T00:39:11.048Z,100454.50
2023-08-08T00:40:14.039Z,100465.84
2023-08-08T00:41:17.114Z,100461.25
2023-08-08T00:42:20.092Z,100470.34
2023-08-08T00:43:23.106Z,100467.84
2023-08-08T00:44:26.158Z,100464.50
2023-08-08T00:45:29.822Z,100469.00
2023-08-08T00:46:33.356Z,100475.94
2023-08-08T00:47:36.814Z,100459.81
2023-08-08T00:48:39.842Z,100459.72
2023-08-08T00:49:45.097Z,100468.22
2023-08-08T00:50:51.659Z,100462.81
2023-08-08T00:51:54.732Z,100469.53
2023-08-08T00:52:57.972Z,100469.81
2023-08-08T00:54:01.121Z,100465.47
2023-08-08T00:55:04.813Z,100469.31
2023-08-08T00:56:07.834Z,100471.16
2023-08-08T00:57:10.869Z,100474.13
2023-08-08T00:58:14.931Z,100465.47
2023-08-08T00:59:20.402Z,100472.47
2023-08-08T01:00:23.430Z,100473.81
2023-08-08T01:01:26.422Z,100473.16
2023-08-08T01:02:29.477Z,100465.03
2023-08-08T01:03:32.511Z,100478.16
2023-08-08T01:04:35.525Z,100474.53
2023-08-08T01:05:57.208Z,100469.06
2023-08-08T01:07:33.985Z,100465.13
2023-08-08T01:08:59.010Z,100483.16
2023-08-08T01:10:10.734Z,100479.69
2023-08-08T01:11:16.822Z,100479.25
2023-08-08T01:12:19.992Z,100475.25
2023-08-08T01:13:27.603Z,100478.84
2023-08-08T01:14:33.928Z,100473.53
2023-08-08T01:15:38.798Z,100477.38
2023-08-08T01:16:43.645Z,100480.69
2023-08-08T01:17:47.850Z,100483.16
2023-08-08T01:18:53.288Z,100484.88
2023-08-08T01:19:56.700Z,100484.88
2023-08-08T01:21:01.377Z,100483.22
2023-08-08T01:22:08.632Z,100483.22
2023-08-08T01:23:55.523Z,100483.59
2023-08-08T01:25:00.519Z,100490.19
2023-08-08T01:26:04.639Z,100486.88
2023-08-08T01:27:08.464Z,100486.88
2023-08-08T01:28:11.507Z,100496.81
2023-08-08T01:29:14.583Z,100490.84
2023-08-08T01:30:17.670Z,100495.41
2023-08-08T01:31:20.685Z,100493.38
2023-08-08T01:32:23.750Z,100497.19
2023-08-08T01:33:26.784Z,100484.56
2023-08-08T01:34:29.763Z,100492.91
2023-08-08T01:35:42.644Z,100493.78
2023-08-08T01:37:03.524Z,100488.31
2023-08-08T01:38:37.395Z,100489.59
2023-08-08T01:39:42.436Z,100483.47
2023-08-08T01:40:46.816Z,100480.63
2023-08-08T01:41:50.052Z,100484.28
2023-08-08T01:42:54.605Z,100487.66
2023-08-08T01:43:58.511Z,100488.66
2023-08-08T01:45:02.085Z,100485.34
2023-08-08T01:46:05.826Z,100488.19
2023-08-08T01:47:10.065Z,100479.22
2023-08-08T01:48:13.166Z,100486.38
2023-08-08T01:49:16.261Z,100484.63
2023-08-08T01:50:19.351Z,100487.34
2023-08-08T01:51:22.363Z,100489.38
2023-08-08T01:52:25.357Z,100492.03
2023-08-08T01:53:28.690Z,100490.84
2023-08-08T01:54:31.690Z,100492.66
2023-08-08T01:55:34.667Z,100489.44
2023-08-08T01:56:37.690Z,100495.31
2023-08-08T01:57:40.841Z,100483.47
2023-08-08T01:58:43.829Z,100492.75
2023-08-08T01:59:47.335Z,100483.00
2023-08-08T02:00:50.403Z,100488.78
2023-08-08T02:01:53.447Z,100487.25
2023-08-08T02:02:56.588Z,100494.19
2023-08-08T02:03:59.578Z,100497.03
2023-08-08T02:05:03.904Z,100488.25
2023-08-08T02:06:06.934Z,100491.72
2023-08-08T02:07:09.909Z,100491.25
2023-08-08T02:08:14.005Z,100492.56
2023-08-08T02:09:17.489Z,100500.00
2023-08-08T02:10:21.554Z,100495.56
2023-08-08T02:11:24.534Z,100495.72
2023-08-08T02:12:27.522Z,100494.25
2023-08-08T02:13:31.570Z,100496.63
2023-08-08T02:14:34.551Z,100499.75
2023-08-08T02:15:37.556Z,100494.78
2023-08-08T02:16:40.858Z,100491.47
2023-08-08T02:17:43.903Z,100497.59
2023-08-08T02:18:46.925Z,100495.41
2023-08-08T02:19:50.024Z,100497.75
2023-08-08T02:20:53.001Z,100499.56
2023-08-08T02:21:56.080Z,100494.25
2023-08-08T02:22:59.093Z,100498.06
2023-08-08T02:24:02.106Z,100501.03
2023-08-08T02:25:05.737Z,100504.41
2023-08-08T02:26:09.430Z,100505.06
2023-08-08T02:27:13.998Z,100505.06
2023-08-08T02:28:17.039Z,100514.09
2023-08-08T02:29:20.037Z,100504.44
2023-08-08T02:30:23.033Z,100510.72
2023-08-08T02:31:26.044Z,100510.94
2023-08-08T02:32:29.244Z,100506.13
2023-08-08T02:33:32.226Z,100510.41
2023-08-08T02:34:35.220Z,100516.75
2023-08-08T02:35:39.121Z,100509.59
2023-08-08T02:36:42.158Z,100518.19
2023-08-08T02:37:45.273Z,100513.53
2023-08-08T02:38:48.317Z,100510.22
2023-08-08T02:39:51.593Z,100514.72
2023-08-08T02:40:54.598Z,100515.06
2023-08-08T02:41:57.755Z,100508.78
2023-08-08T02:43:01.379Z,100513.06
2023-08-08T02:44:04.471Z,100508.94
2023-08-08T02:45:08.182Z,100515.06
2023-08-08T02:46:11.236Z,100510.56
2023-08-08T02:47:14.246Z,100514.91
2023-08-08T02:48:17.285Z,100514.72
2023-08-08T02:49:20.328Z,100506.44
2023-08-08T02:50:23.362Z,100506.28
2023-08-08T02:51:26.385Z,100511.44
2023-08-08T02:52:29.351Z,100506.13
2023-08-08T02:53:32.324Z,100510.41
2023-08-08T02:54:35.327Z,100519.03
2023-08-08T02:55:38.548Z,100517.06
2023-08-08T02:56:41.537Z,100512.88
2023-08-08T02:57:44.554Z,100520.56
2023-08-08T02:58:47.528Z,100519.59
2023-08-08T02:59:50.515Z,100522.91
2023-08-08T03:00:53.761Z,100530.06
2023-08-08T03:01:56.989Z,100533.84
2023-08-08T03:03:00.023Z,100539.16
2023-08-08T03:04:03.061Z,100525.06
2023-08-08T03:05:07.007Z,100529.44
2023-08-08T03:06:10.224Z,100524.59
2023-08-08T03:07:13.213Z,100523.78
2023-08-08T03:08:16.213Z,100527.09
2023-08-08T03:09:19.200Z,100524.78
2023-08-08T03:10:22.175Z,100524.09
2023-08-08T03:11:25.245Z,100528.72
2023-08-08T03:12:28.220Z,100512.50
2023-08-08T03:13:31.266Z,100523.41
2023-08-08T03:14:34.821Z,100527.44
2023-08-08T03:15:38.142Z,100525.13
2023-08-08T03:16:41.146Z,100521.13
2023-08-08T03:17:44.217Z,100520.81
2023-08-08T03:18:47.224Z,100522.13
2023-08-08T03:19:50.275Z,100527.44
2023-08-08T03:20:54.397Z,100523.41
2023-08-08T03:21:57.735Z,100529.25
2023-08-08T03:23:01.128Z,100524.78
2023-08-08T03:24:04.371Z,100526.59
2023-08-08T03:25:08.007Z,100531.06
2023-08-08T03:26:10.992Z,100533.09
2023-08-08T03:27:14.021Z,100532.06
2023-08-08T03:28:17.008Z,100534.22
2023-08-08T03:29:20.053Z,100532.41
2023-08-08T03:30:23.121Z,100541.06
2023-08-08T03:31:27.322Z,100536.38
2023-08-08T03:32:30.368Z,100540.41
2023-08-08T03:33:33.376Z,100532.91
2023-08-08T03:34:36.468Z,100537.72
2023-08-08T03:35:39.587Z,100543.34
2023-08-08T03:36:43.735Z,100542.97
2023-08-08T03:37:46.813Z,100538.53
2023-08-08T03:38:49.806Z,100545.13
2023-08-08T03:39:52.769Z,100551.47
2023-08-08T03:40:56.283Z,100558.91
2023-08-08T03:41:59.346Z,100551.78
2023-08-08T03:43:02.671Z,100554.94
2023-08-08T03:44:05.829Z,100551.41
2023-08-08T03:45:09.941Z,100546.94
2023-08-08T03:46:12.942Z,100557.19
2023-08-08T03:47:19.930Z,100555.72
2023-08-08T03:48:23.694Z,100558.22
2023-08-08T03:49:26.944Z,100566.19
2023-08-08T03:50:29.961Z,100568.88
2023-08-08T03:51:32.961Z,100571.50
2023-08-08T03:52:38.333Z,100582.59
2023-08-08T03:53:41.370Z,100579.16
2023-08-08T03:54:45.334Z,100578.81
2023-08-08T03:55:48.298Z,100587.13
2023-08-08T03:56:51.274Z,100574.16
2023-08-08T03:57:54.432Z,100577.97
2023-08-08T03:58:59.499Z,100580.13
2023-08-08T04:00:02.634Z,100575.47
2023-08-08T04:01:05.712Z,100575.31
2023-08-08T04:02:08.945Z,100583.63
2023-08-08T04:03:12.729Z,100579.63
2023-08-08T04:04:17.790Z,100583.75
2023-08-08T04:05:20.803Z,100578.44
2023-08-08T04:06:23.779Z,100587.75
2023-08-08T04:07:26.757Z,100594.38
2023-08-08T04:08:29.776Z,100589.56
2023-08-08T04:09:32.965Z,100600.19
2023-08-08T04:10:35.936Z,100601.38
2023-08-08T04:11:38.923Z,100597.34
2023-08-08T04:12:41.896Z,100605.97
2023-08-08T04:13:44.932Z,100600.69
2023-08-08T04:14:47.947Z,100599.50
2023-08-08T04:15:52.994Z,100601.63
2023-08-08T04:16:56.082Z,100604.63
2023-08-08T04:17:59.160Z,100597.97
2023-08-08T04:19:04.549Z,100596.31
2023-08-08T04:20:08.416Z,100600.28
2023-08-08T04:21:11.404Z,100606.25
2023-08-08T04:22:14.399Z,100603.41
2023-08-08T04:23:17.425Z,100603.59
2023-08-08T04:24:20.399Z,100602.59
2023-08-08T04:25:23.414Z,100605.09
2023-08-08T04:26:26.890Z,100606.25
2023-08-08T04:27:30.314Z,100605.75
2023-08-08T04:28:33.571Z,100610.91
2023-08-08T04:29:36.548Z,100608.38
2023-08-08T04:30:39.677Z,100605.56
2023-08-08T04:31:42.737Z,100608.22
2023-08-08T04:32:46.480Z,100610.88
2023-08-08T04:33:49.498Z,100612.53
2023-08-08T04:34:52.470Z,100622.31
2023-08-08T04:35:55.461Z,100622.50
2023-08-08T04:36:58.472Z,100613.84
2023-08-08T04:38:01.469Z,100612.16
2023-08-08T04:39:04.504Z,100621.50
2023-08-08T04:40:09.733Z,100617.00
2023-08-08T04:41:12.783Z,100618.50
2023-08-08T04:42:15.784Z,100615.69
2023-08-08T04:43:18.771Z,100614.00
2023-08-08T04:44:21.758Z,100613.66
2023-08-08T04:45:24.770Z,100616.66
2023-08-08T04:46:27.812Z,100611.00
2023-08-08T04:47:30.808Z,100613.50
2023-08-08T04:48:33.914Z,100612.78
2023-08-08T04:49:36.906Z,100618.09
2023-08-08T04:50:40.329Z,100621.88
2023-08-08T04:51:43.318Z,100623.53
2023-08-08T04:52:46.300Z,100614.69
2023-08-08T04:53:49.279Z,100622.25
2023-08-08T04:54:52.274Z,100626.78
2023-08-08T04:55:55.278Z,100616.97
2023-08-08T04:56:58.285Z,100627.72
2023-08-08T04:58:01.268Z,100623.94
2023-08-08T04:59:04.312Z,100623.16
2023-08-08T05:00:09.726Z,100617.59
2023-08-08T05:01:15.686Z,100627.69
2023-08-08T05:02:18.731Z,100618.41
2023-08-08T05:03:21.861Z,100623.34
2023-08-08T05:04:24.916Z,100614.78
2023-08-08T05:05:27.993Z,100621.63
2023-08-08T05:06:31.014Z,100624.97
2023-08-08T05:07:33.999Z,100622.94
2023-08-08T05:08:36.993Z,100632.81
2023-08-08T05:09:39.987Z,100632.00
2023-08-08T05:10:42.994Z,100629.28
2023-08-08T05:11:46.031Z,100629.44
2023-08-08T05:12:49.041Z,100626.69
2023-08-08T05:13:52.014Z,100628.81
2023-08-08T05:14:55.019Z,100623.41
2023-08-08T05:15:58.067Z,100617.88
2023-08-08T05:17:04.187Z,100624.03
2023-08-08T05:18:07.172Z,100617.69
2023-08-08T05:19:10.290Z,100627.44
2023-08-08T05:20:13.488Z,100631.06
2023-08-08T05:21:16.457Z,100624.06
2023-08-08T05:22:19.456Z,100625.34
2023-08-08T05:23:25.164Z,100622.28
2023-08-08T05:24:34.080Z,100629.38
2023-08-08T05:25:37.171Z,100627.66
2023-08-08T05:26:40.152Z,100632.81
2023-08-08T05:27:43.451Z,100634.22
2023-08-08T05:28:46.451Z,100627.06
2023-08-08T05:29:49.427Z,100634.25
2023-08-08T05:30:52.495Z,100633.25
2023-08-08T05:31:55.564Z,100638.00
2023-08-08T05:32:58.570Z,100641.06
2023-08-08T05:34:01.565Z,100634.25
2023-08-08T05:35:05.657Z,100634.25
2023-08-08T05:36:08.687Z,100641.09
2023-08-08T05:37:17.078Z,100635.47
2023-08-08T05:38:20.804Z,100634.53
2023-08-08T05:39:23.780Z,100637.25
2023-08-08T05:40:26.775Z,100636.75
2023-08-08T05:41:29.765Z,100641.66
2023-08-08T05:42:33.109Z,100639.63
2023-08-08T05:43:36.721Z,100633.72
2023-08-08T05:44:39.708Z,100640.88
2023-08-08T05:45:42.678Z,100637.03
2023-08-08T05:46:45.692Z,100633.03
2023-08-08T05:47:48.733Z,100639.75
2023-08-08T05:48:51.786Z,100634.09
2023-08-08T05:49:54.775Z,100635.22
2023-08-08T05:50:59.926Z,100635.66
2023-08-08T05:52:04.060Z,100638.56
2023-08-08T05:53:07.520Z,100639.88
2023-08-08T05:54:12.631Z,100641.91
2023-08-08T05:55:15.749Z,100634.56
2023-08-08T05:56:18.784Z,100643.31
2023-08-08T05:57:22.731Z,100643.53
2023-08-08T05:58:25.827Z,100637.88
2023-08-08T05:59:28.805Z,100643.69
2023-08-08T06:00:33.020Z,100645.63
2023-08-08T06:01:36.770Z,100637.34
2023-08-08T06:02:39.994Z,100644.22
2023-08-08T06:03:43.681Z,100645.13
2023-08-08T06:04:46.698Z,100642.34
2023-08-08T06:05:49.691Z,100637.72
2023-08-08T06:06:52.661Z,100635.69
2023-08-08T06:07:58.896Z,100637.78
2023-08-08T06:09:01.863Z,100635.66
2023-08-08T06:10:05.752Z,100635.34
2023-08-08T06:11:08.726Z,100636.59
2023-08-08T06:12:11.751Z,100636.66
2023-08-08T06:13:14.760Z,100626.75
2023-08-08T06:14:18.699Z,100633.94
2023-08-08T06:15:21.831Z,100634.25
2023-08-08T06:16:24.857Z,100637.72
2023-08-08T06:17:27.884Z,100645.09
2023-08-08T06:18:31.260Z,100639.56
2023-08-08T06:19:34.261Z,100635.09
2023-08-08T06:20:37.632Z,100637.41
2023-08-08T06:21:40.731Z,100638.97
2023-08-08T06:22:43.722Z,100642.47
2023-08-08T06:23:47.644Z,100639.28
2023-08-08T06:24:50.709Z,100644.47
2023-08-08T06:25:53.720Z,100637.59
2023-08-08T06:26:56.771Z,100637.44
2023-08-08T06:27:59.801Z,100644.91
2023-08-08T06:29:02.867Z,100640.75
2023-08-08T06:30:06.977Z,100647.81
2023-08-08T06:31:10.025Z,100648.19
2023-08-08T06:32:13.031Z,100650.47
2023-08-08T06:33:16.108Z,100649.53
2023-08-08T06:34:19.097Z,100652.31
2023-08-08T06:35:22.063Z,100651.34
2023-08-08T06:36:25.060Z,100652.13
2023-08-08T06:37:28.417Z,100653.25
2023-08-08T06:38:34.983Z,100650.00
2023-08-08T06:39:39.789Z,100656.47
2023-08-08T06:40:42.783Z,100658.09
2023-08-08T06:41:45.747Z,100655.78
2023-08-08T06:42:48.721Z,100655.38
2023-08-08T06:43:52.524Z,100655.72
2023-08-08T06:44:55.511Z,100662.88
2023-08-08T06:45:58.900Z,100661.59
2023-08-08T06:47:01.924Z,100658.09
2023-08-08T06:48:05.544Z,100658.59
2023-08-08T06:49:09.987Z,100666.06
2023-08-08T06:50:12.958Z,100669.81
2023-08-08T06:51:16.037Z,100667.66
2023-08-08T06:52:19.030Z,100665.78
2023-08-08T06:53:22.007Z,100675.22
2023-08-08T06:54:25.000Z,100664.16
2023-08-08T06:55:28.045Z,100674.69
2023-08-08T06:56:31.136Z,100662.66
2023-08-08T06:57:36.103Z,100664.28
2023-08-08T06:58:39.118Z,100667.81
2023-08-08T06:59:42.675Z,100666.41
2023-08-08T07:00:46.290Z,100671.31
2023-08-08T07:01:49.856Z,100674.63
2023-08-08T07:02:52.891Z,100666.03
2023-08-08T07:03:55.974Z,100673.16
2023-08-08T07:04:58.954Z,100669.63
2023-08-08T07:06:01.920Z,100662.59
2023-08-08T07:07:05.288Z,100665.91
2023-08-08T07:08:10.030Z,100670.53
2023-08-08T07:09:13.270Z,100668.25
2023-08-08T07:10:17.092Z,100669.59
2023-08-08T07:11:20.082Z,100672.16
2023-08-08T07:12:23.087Z,100669.44
2023-08-08T07:13:26.092Z,100669.38
2023-08-08T07:14:29.083Z,100666.25
2023-08-08T07:15:32.429Z,100667.59
2023-08-08T07:16:35.611Z,100666.31
2023-08-08T07:17:38.628Z,100668.34
2023-08-08T07:18:41.628Z,100674.88
2023-08-08T07:19:44.701Z,100671.31
2023-08-08T07:20:47.681Z,100665.91
2023-08-08T07:21:51.311Z,100675.00
2023-08-08T07:22:54.500Z,100665.69
2023-08-08T07:23:58.607Z,100675.66
2023-08-08T07:25:01.676Z,100675.06
2023-08-08T07:26:04.668Z,100668.00
2023-08-08T07:27:07.651Z,100671.19
2023-08-08T07:28:10.651Z,100666.38
2023-08-08T07:29:14.005Z,100666.34
2023-08-08T07:30:17.255Z,100669.88
2023-08-08T07:31:20.262Z,100672.34
2023-08-08T07:32:23.385Z,100661.19
2023-08-08T07:33:26.428Z,100663.94
2023-08-08T07:34:29.437Z,100664.66
2023-08-08T07:35:34.258Z,100662.41
2023-08-08T07:36:37.260Z,100671.50
2023-08-08T07:37:40.273Z,100668.34
2023-08-08T07:38:43.266Z,100664.72
2023-08-08T07:39:46.254Z,100670.72
2023-08-08T07:40:49.819Z,100659.94
2023-08-08T07:41:53.181Z,100667.38
2023-08-08T07:42:56.154Z,100669.16
2023-08-08T07:43:59.152Z,100667.03
2023-08-08T07:45:02.134Z,100672.97
2023-08-08T07:46:05.261Z,100672.53
2023-08-08T07:47:09.440Z,100672.84
2023-08-08T07:48:14.153Z,100669.78
2023-08-08T07:49:17.395Z,100666.19
2023-08-08T07:50:20.372Z,100673.56
2023-08-08T07:51:23.345Z,100675.50
2023-08-08T07:52:26.349Z,100674.69
2023-08-08T07:53:29.358Z,100679.81
2023-08-08T07:54:32.488Z,100678.06
2023-08-08T07:55:35.513Z,100670.72
2023-08-08T07:56:38.682Z,100675.91
2023-08-08T07:57:41.659Z,100675.75
2023-08-08T07:58:44.659Z,100682.63
2023-08-08T07:59:47.628Z,100673.66
2023-08-08T08:00:50.684Z,100679.81
2023-08-08T08:01:53.834Z,100676.47
2023-08-08T08:02:56.919Z,100675.59
2023-08-08T08:04:00.123Z,100674.53
2023-08-08T08:05:06.282Z,100667.66
2023-08-08T08:06:09.333Z,100665.38
2023-08-08T08:07:12.377Z,100666.97
2023-08-08T08:08:15.383Z,100666.28
2023-08-08T08:09:18.584Z,100665.47
2023-08-08T08:10:21.562Z,100677.19
2023-08-08T08:11:24.542Z,100669.03
2023-08-08T08:12:27.540Z,100677.00
2023-08-08T08:13:30.531Z,100674.06
2023-08-08T08:14:33.506Z,100671.09
2023-08-08T08:15:36.490Z,100680.56
2023-08-08T08:16:39.562Z,100675.59
2023-08-08T08:17:43.073Z,100677.84
2023-08-08T08:18:46.101Z,100681.34
2023-08-08T08:19:49.344Z,100673.00
2023-08-08T08:20:52.322Z,100675.25
2023-08-08T08:21:55.382Z,100671.13
2023-08-08T08:22:58.365Z,100682.13
2023-08-08T08:24:01.380Z,100680.28
2023-08-08T08:25:05.333Z,100677.25
2023-08-08T08:26:08.458Z,100674.38
2023-08-08T08:27:11.449Z,100670.81
2023-08-08T08:28:14.504Z,100677.75
2023-08-08T08:29:17.498Z,100675.50
2023-08-08T08:30:20.842Z,100684.56
2023-08-08T08:31:24.089Z,100673.66
2023-08-08T08:32:27.304Z,100671.72
2023-08-08T08:33:30.329Z,100677.09
2023-08-08T08:34:33.326Z,100678.75
2023-08-08T08:35:37.128Z,100683.66
2023-08-08T08:36:40.122Z,100685.88
2023-08-08T08:37:43.126Z,100687.72
2023-08-08T08:38:48.012Z,100683.13
2023-08-08T08:39:51.004Z,100689.94
2023-08-08T08:40:57.516Z,100682.63
2023-08-08T08:42:06.286Z,100681.13
2023-08-08T08:43:11.079Z,100679.72
2023-08-08T08:44:15.514Z,100681.34
2023-08-08T08:45:22.638Z,100683.47
2023-08-08T08:46:27.942Z,100675.59
2023-08-08T08:47:33.467Z,100677.13
2023-08-08T08:48:36.685Z,100677.72
2023-08-08T08:49:44.413Z,100676.06
2023-08-08T08:50:50.266Z,100679.72
2023-08-08T08:51:53.467Z,100670.22
2023-08-08T08:52:57.910Z,100676.28
2023-08-08T08:54:01.135Z,100670.34
2023-08-08T08:55:06.118Z,100673.03
2023-08-08T08:56:09.780Z,100669.00
2023-08-08T08:57:13.445Z,100677.66
2023-08-08T08:58:20.224Z,100671.94
2023-08-08T08:59:23.206Z,100675.22
2023-08-08T09:00:27.140Z,100676.16
2023-08-08T09:01:30.435Z,100674.59
2023-08-08T09:02:33.534Z,100681.34
2023-08-08T09:03:38.095Z,100686.13
2023-08-08T09:04:41.617Z,100682.56
2023-08-08T09:05:46.169Z,100678.78
2023-08-08T09:06:51.387Z,100678.22
2023-08-08T09:07:54.849Z,100676.88
2023-08-08T09:09:07.295Z,100685.63
2023-08-08T09:10:20.644Z,100685.53
2023-08-08T09:11:23.722Z,100685.47
2023-08-08T09:12:26.985Z,100687.22
2023-08-08T09:13:39.747Z,100685.22
2023-08-08T09:14:43.138Z,100679.50
2023-08-08T09:15:49.534Z,100681.13
2023-08-08T09:16:54.564Z,100685.06
2023-08-08T09:17:57.842Z,100683.38
2023-08-08T09:19:02.108Z,100680.47
2023-08-08T09:20:06.655Z,100683.38
2023-08-08T09:21:09.719Z,100684.88
2023-08-08T09:22:15.054Z,100690.56
2023-08-08T09:23:18.288Z,100684.47
2023-08-08T09:24:21.610Z,100685.53
2023-08-08T09:25:25.546Z,100692.75
2023-08-08T09:26:30.302Z,100691.38
2023-08-08T09:27:33.659Z,100692.13
2023-08-08T09:28:36.678Z,100689.84
2023-08-08T09:29:39.966Z,100684.28
2023-08-08T09:30:44.204Z,100686.34
2023-08-08T09:31:48.844Z,100685.38
2023-08-08T09:32:51.877Z,100695.38
2023-08-08T09:34:04.856Z,100694.31
2023-08-08T09:35:11.725Z,100695.19
2023-08-08T09:36:17.450Z,100688.31
2023-08-08T09:37:21.351Z,100690.66
2023-08-08T09:38:24.422Z,100691.47
2023-08-08T09:39:29.558Z,100690.34
2023-08-08T09:40:33.110Z,100693.63
2023-08-08T09:41:36.372Z,100697.41
2023-08-08T09:42:42.593Z,100693.41
2023-08-08T09:43:53.357Z,100699.88
2023-08-08T09:44:58.266Z,100702.03
2023-08-08T09:46:01.291Z,100697.84
2023-08-08T09:47:04.292Z,100705.28
2023-08-08T09:48:08.190Z,100693.88
2023-08-08T09:49:14.283Z,100703.75
2023-08-08T09:50:17.562Z,100704.97
2023-08-08T09:51:22.668Z,100693.22
2023-08-08T09:52:28.464Z,100700.34
2023-08-08T09:53:31.584Z,100697.56
2023-08-08T09:54:35.599Z,100700.31
2023-08-08T09:55:39.030Z,100701.31
2023-08-08T09:56:42.676Z,100691.81
2023-08-08T09:57:46.871Z,100686.69
2023-08-08T09:58:50.121Z,100695.78
2023-08-08T09:59:53.882Z,100691.88
2023-08-08T10:00:56.892Z,100692.66
2023-08-08T10:02:01.353Z,100699.44
2023-08-08T10:03:04.968Z,100701.91
2023-08-08T10:04:09.510Z,100695.19
2023-08-08T10:05:15.382Z,100692.50
2023-08-08T10:06:18.440Z,100698.38
2023-08-08T10:07:21.493Z,100695.41
2023-08-08T10:08:24.856Z,100691.44
2023-08-08T10:09:28.060Z,100687.31
2023-08-08T10:10:32.277Z,100687.91
2023-08-08T10:11:36.676Z,100689.16
2023-08-08T10:12:41.349Z,100687.53
2023-08-08T10:13:55.037Z,100683.97
2023-08-08T10:14:58.437Z,100685.13
2023-08-08T10:16:09.589Z,100686.63
2023-08-08T10:17:16.945Z,100680.38
2023-08-08T10:18:23.424Z,100687.38
2023-08-08T10:19:26.552Z,100678.84
2023-08-08T10:20:33.300Z,100682.25
2023-08-08T10:21:38.910Z,100677.53
2023-08-08T10:22:48.147Z,100674.00
2023-08-08T10:23:51.441Z,100666.41
2023-08-08T10:24:55.648Z,100666.19
2023-08-08T10:25:58.619Z,100668.03
2023-08-08T10:27:03.417Z,100670.09
2023-08-08T10:29:22.370Z,100665.56
2023-08-08T10:30:25.352Z,100670.84
2023-08-08T10:31:36.295Z,100658.13
2023-08-08T10:32:44.991Z,100668.63
2023-08-08T10:33:48.135Z,100670.72
2023-08-08T10:34:51.426Z,100663.41
2023-08-08T10:36:02.721Z,100661.28
2023-08-08T10:37:17.189Z,100664.88
2023-08-08T10:38:20.174Z,100658.75
2023-08-08T10:39:23.224Z,100657.19
2023-08-08T10:40:34.228Z,100657.28
2023-08-08T10:41:50.217Z,100661.81
2023-08-08T10:42:53.736Z,100659.09
2023-08-08T10:43:58.956Z,100656.81
2023-08-08T10:45:04.384Z,100652.28
2023-08-08T10:46:13.936Z,100647.47
2023-08-08T10:47:18.084Z,100656.09
2023-08-08T10:48:21.513Z,100655.53
2023-08-08T10:49:24.727Z,100655.88
2023-08-08T10:50:27.724Z,100650.25
2023-08-08T10:51:45.220Z,100655.59
2023-08-08T10:52:53.767Z,100648.09
2023-08-08T10:53:57.006Z,100655.75
2023-08-08T10:55:00.252Z,100659.84
2023-08-08T10:56:05.476Z,100648.75
2023-08-08T10:57:17.443Z,100647.69
2023-08-08T10:58:21.306Z,100657.75
2023-08-08T10:59:29.163Z,100643.94
2023-08-08T11:00:37.844Z,100642.13
2023-08-08T11:01:41.915Z,100657.75
2023-08-08T11:02:46.168Z,100650.19
2023-08-08T11:03:50.823Z,100648.63
2023-08-08T11:04:54.032Z,100639.69
2023-08-08T11:05:57.043Z,100650.88
2023-08-08T11:07:00.414Z,100646.78
2023-08-08T11:08:06.513Z,100646.09
2023-08-08T11:09:11.149Z,100645.13
2023-08-08T11:10:14.342Z,100640.53
2023-08-08T11:11:18.427Z,100637.16
2023-08-08T11:12:21.509Z,100633.91
2023-08-08T11:13:24.498Z,100638.53
2023-08-08T11:14:27.501Z,100641.50
2023-08-08T11:15:33.574Z,100645.31
2023-08-08T11:16:36.587Z,100648.16
2023-08-08T11:17:40.000Z,100645.88
2023-08-08T11:18:44.387Z,100646.47
2023-08-08T11:19:47.433Z,100641.84
2023-08-08T11:20:52.530Z,100640.06
2023-08-08T11:21:56.824Z,100647.59
2023-08-08T11:23:00.908Z,100651.78
2023-08-08T11:24:06.085Z,100641.38
2023-08-08T11:25:09.647Z,100640.75
2023-08-08T11:27:42.632Z,100644.47
2023-08-08T11:28:51.646Z,100651.59
2023-08-08T11:29:54.713Z,100645.56
2023-08-08T11:30:58.138Z,100641.91
2023-08-08T11:32:03.017Z,100638.78
2023-08-08T11:34:13.919Z,100642.38
2023-08-08T11:35:24.538Z,100640.31
2023-08-08T11:36:35.925Z,100639.00
2023-08-08T11:37:39.527Z,100646.78
2023-08-08T11:38:44.662Z,100644.16
2023-08-08T11:39:48.033Z,100646.09
2023-08-08T11:40:53.547Z,100641.22
2023-08-08T11:41:59.712Z,100643.25
2023-08-08T11:43:03.239Z,100642.03
2023-08-08T11:44:07.030Z,100643.03
2023-08-08T11:45:11.488Z,100643.13
2023-08-08T11:46:16.373Z,100639.59
2023-08-08T11:47:26.099Z,100638.84
2023-08-08T11:48:29.153Z,100640.16
2023-08-08T11:49:32.203Z,100633.66
2023-08-08T11:50:38.912Z,100645.28
2023-08-08T11:51:45.166Z,100640.44
2023-08-08T11:52:48.409Z,100634.13
2023-08-08T11:53:55.095Z,100634.47
2023-08-08T11:55:01.766Z,100634.41
2023-08-08T11:56:06.907Z,100636.66
2023-08-08T11:57:10.842Z,100630.69
2023-08-08T11:58:15.963Z,100628.28
2023-08-08T11:59:20.898Z,100625.31
2023-08-08T12:00:30.566Z,100626.06
2023-08-08T12:01:34.790Z,100632.16
2023-08-08T12:02:37.834Z,100626.69
2023-08-08T12:03:41.350Z,100626.09
2023-08-08T12:04:48.218Z,100623.03
2023-08-08T12:05:51.245Z,100619.91
2023-08-08T12:07:05.047Z,100618.28
2023-08-08T12:08:08.285Z,100629.41
2023-08-08T12:09:16.511Z,100616.56
2023-08-08T12:10:24.595Z,100621.06
2023-08-08T12:11:29.370Z,100621.88
2023-08-08T12:12:39.666Z,100611.56
2023-08-08T12:13:45.554Z,100615.50
2023-08-08T12:14:51.456Z,100621.16
2023-08-08T12:17:08.237Z,100611.25